Date,TemperatureHighF,TemperatureAvgF,TemperatureLowF,DewpointHighF,DewpointAvgF,DewpointLowF,HumidityHigh,HumidityAvg,HumidityLow,PressureMaxIn,PressureMinIn,WindSpeedMaxMPH,WindSpeedAvgMPH,GustSpeedMaxMPH,PrecipitationSumIn
2013-10-1,86.8,77.8,66.0,71.5,67.1,63.3,97,72,47,29.91,29.83,10,2,0,0.00
2013-10-2,85.2,77.1,69.8,72.5,69.7,68.3,96,79,60,29.94,29.80,11,2,0,0.00
2013-10-3,87.2,78.2,71.4,73.4,70.2,67.9,90,77,61,29.85,29.70,14,4,0,0.00
2013-10-4,87.0,79.4,73.7,71.8,69.6,67.6,89,73,54,29.83,29.72,15,4,0,0.00
2013-10-5,77.9,59.5,49.9,67.9,49.1,40.1,94,71,37,30.07,29.81,8,0,0,0.65
2013-10-6,69.3,56.8,47.1,48.2,43.6,37.9,86,64,41,30.04,29.97,8,1,0,0.00
2013-10-7,77.1,59.1,45.0,50.5,44.3,37.6,92,64,26,30.16,30.01,3,0,0,0.00
2013-10-8,75.6,62.3,49.6,53.4,49.9,47.1,93,67,38,30.11,29.98,11,1,0,0.00
2013-10-9,79.2,65.5,52.6,59.6,53.4,48.8,88,67,46,30.06,29.95,8,1,0,0.00
2013-10-10,80.5,68.3,56.9,61.9,57.0,51.7,88,69,49,30.02,29.82,14,2,0,0.00
2013-10-11,81.9,72.0,63.2,68.8,64.1,56.9,87,77,63,29.84,29.73,13,3,0,0.00
2013-10-12,76.4,68.4,59.2,68.7,57.6,52.2,92,70,48,30.10,29.80,4,0,0,0.01
2013-10-13,76.6,68.6,63.2,64.9,57.3,51.0,73,67,61,30.24,30.10,6,0,0,0.00
2013-10-14,68.0,63.8,59.0,64.3,59.0,53.2,96,85,66,30.15,29.87,11,2,0,0.76
2013-10-15,67.9,59.8,54.8,66.7,54.3,47.3,96,82,64,30.07,29.84,8,0,0,0.08
2013-10-16,62.8,54.0,46.3,46.9,43.8,40.9,89,69,52,30.15,30.02,3,0,0,0.00
2013-10-17,68.5,53.3,42.3,50.6,45.3,40.7,96,77,43,30.07,29.93,7,1,0,0.00
2013-10-18,56.8,51.1,46.8,48.2,45.8,43.6,95,82,70,30.05,29.98,2,0,0,0.00
2013-10-19,49.7,41.1,35.5,42.4,37.7,34.1,96,88,76,30.17,30.12,8,2,0,0.00
2013-10-20,70.5,59.8,44.8,46.2,42.3,37.5,83,55,32,29.97,29.81,14,2,0,0.00
2013-10-21,57.4,53.6,51.6,48.1,45.8,41.1,84,75,63,30.09,29.92,3,0,0,0.01
2013-10-22,73.8,58.2,40.6,49.6,44.8,38.7,94,65,37,30.07,29.96,12,0,0,0.00
2013-10-23,68.1,55.0,42.9,49.3,44.1,39.3,89,68,43,30.16,29.98,8,0,0,0.00
2013-10-24,58.8,51.2,45.7,47.0,39.1,32.1,92,65,44,30.40,30.05,5,0,0,0.00
2013-10-25,59.8,49.5,40.1,42.1,35.4,32.1,75,59,39,30.47,30.21,13,1,0,0.00
2013-10-26,68.5,56.4,48.6,57.0,49.2,41.6,94,77,65,30.21,30.06,10,1,0,0.00
2013-10-27,71.0,55.6,40.7,53.7,41.3,29.1,94,63,23,30.11,29.95,6,0,0,0.00
2013-10-28,70.4,62.1,54.4,59.4,56.2,51.5,95,82,63,30.11,29.98,10,2,0,0.00
2013-10-29,75.2,69.4,62.5,68.5,65.0,58.8,91,86,78,30.03,29.87,17,3,0,0.02
2013-10-30,71.7,68.1,64.3,67.9,65.0,62.3,97,90,86,29.95,29.71,16,3,0,0.94
2013-10-31,69.5,63.0,50.5,65.1,56.2,46.2,97,80,51,29.77,29.52,23,2,0,0.33